createdAt,value
2023-01-31T00:01:41.031Z,5.90
2023-01-31T00:04:12.737Z,5.90
2023-01-31T00:06:42.257Z,6.10
2023-01-31T00:09:11.754Z,6.00
2023-01-31T00:11:41.194Z,6.00
2023-01-31T00:14:11.388Z,5.90
2023-01-31T00:16:39.319Z,5.90
2023-01-31T00:19:07.615Z,6.00
2023-01-31T00:21:35.958Z,6.20
2023-01-31T00:24:05.609Z,6.20
2023-01-31T00:26:35.173Z,6.20
2023-01-31T00:29:06.248Z,6.20
2023-01-31T00:31:36.139Z,6.10
2023-01-31T00:34:04.415Z,5.90
2023-01-31T00:36:34.823Z,5.80
2023-01-31T00:39:04.464Z,5.90
2023-01-31T00:41:33.419Z,5.80
2023-01-31T00:44:01.764Z,5.70
2023-01-31T00:46:30.912Z,5.70
2023-01-31T00:48:59.124Z,5.80
2023-01-31T00:51:27.792Z,5.90
2023-01-31T00:53:56.210Z,6.00
2023-01-31T00:56:25.723Z,5.90
2023-01-31T00:58:55.578Z,5.70
2023-01-31T01:01:26.078Z,5.80
2023-01-31T01:03:56.108Z,5.80
2023-01-31T01:06:24.664Z,6.10
2023-01-31T01:08:52.535Z,6.20
2023-01-31T01:11:22.439Z,6.10
2023-01-31T01:13:50.908Z,6.10
2023-01-31T01:16:21.440Z,6.00
2023-01-31T01:18:50.312Z,6.00
2023-01-31T01:21:21.220Z,5.90
2023-01-31T01:23:49.377Z,5.90
2023-01-31T01:26:19.096Z,5.70
2023-01-31T01:28:47.464Z,6.00
2023-01-31T01:31:17.171Z,6.00
2023-01-31T01:33:45.802Z,6.10
2023-01-31T01:36:17.229Z,6.10
2023-01-31T01:38:47.013Z,6.10
2023-01-31T01:41:15.722Z,6.10
2023-01-31T01:43:45.387Z,6.00
2023-01-31T01:46:17.381Z,5.90
2023-01-31T01:48:48.431Z,5.70
2023-01-31T01:51:19.338Z,5.60
2023-01-31T01:53:53.578Z,5.80
2023-01-31T01:56:27.304Z,6.20
2023-01-31T01:59:03.935Z,6.10
2023-01-31T02:01:36.773Z,5.90
2023-01-31T02:04:05.576Z,5.90
2023-01-31T02:06:33.713Z,6.10
2023-01-31T02:09:04.274Z,6.20
2023-01-31T02:11:33.119Z,6.30
2023-01-31T02:14:04.178Z,6.00
2023-01-31T02:16:32.026Z,6.10
2023-01-31T02:19:00.637Z,6.30
2023-01-31T02:21:52.128Z,6.10
2023-01-31T02:24:54.273Z,5.80
2023-01-31T02:27:47.211Z,5.80
2023-01-31T02:31:02.648Z,6.00
2023-01-31T02:33:39.141Z,5.80
2023-01-31T02:36:19.277Z,6.00
2023-01-31T02:38:58.891Z,5.90
2023-01-31T02:41:31.082Z,6.00
2023-01-31T02:44:24.107Z,6.00
2023-01-31T02:47:05.072Z,5.90
2023-01-31T02:49:39.524Z,6.10
2023-01-31T02:52:18.515Z,6.00
2023-01-31T02:55:13.620Z,5.90
2023-01-31T02:57:43.133Z,5.80
2023-01-31T03:00:12.314Z,5.70
2023-01-31T03:02:40.198Z,5.60
2023-01-31T03:05:13.591Z,5.60
2023-01-31T03:07:43.377Z,5.80
2023-01-31T03:10:20.087Z,5.90
2023-01-31T03:12:57.200Z,6.00
2023-01-31T03:16:01.569Z,5.80
2023-01-31T03:18:35.347Z,5.80
2023-01-31T03:21:10.140Z,5.60
2023-01-31T03:23:39.825Z,5.60
2023-01-31T03:26:09.145Z,5.80
2023-01-31T03:28:42.043Z,5.70
2023-01-31T03:31:15.354Z,5.50
2023-01-31T03:33:47.070Z,5.50
2023-01-31T03:36:25.755Z,5.70
2023-01-31T03:39:06.273Z,5.60
2023-01-31T03:41:43.892Z,5.60
2023-01-31T03:44:16.243Z,5.40
2023-01-31T03:46:47.932Z,5.60
2023-01-31T03:49:17.741Z,5.80
2023-01-31T03:51:51.706Z,5.60
2023-01-31T03:54:24.937Z,5.80
2023-01-31T03:56:57.116Z,6.00
2023-01-31T03:59:28.333Z,5.90
2023-01-31T04:01:58.022Z,6.00
2023-01-31T04:04:29.915Z,6.10
2023-01-31T04:06:59.199Z,6.40
2023-01-31T04:09:27.528Z,6.30
2023-01-31T04:11:55.263Z,6.20
2023-01-31T04:14:23.017Z,6.40
2023-01-31T04:16:50.733Z,6.50
2023-01-31T04:19:18.497Z,6.50
2023-01-31T04:21:46.341Z,6.40
2023-01-31T04:24:15.365Z,6.30
2023-01-31T04:26:43.124Z,6.00
2023-01-31T04:29:10.952Z,6.00
2023-01-31T04:31:39.629Z,6.20
2023-01-31T04:34:07.426Z,6.10
2023-01-31T04:36:35.136Z,6.10
2023-01-31T04:39:02.855Z,6.20
2023-01-31T04:41:32.101Z,6.20
2023-01-31T04:43:59.915Z,6.10
2023-01-31T04:46:27.661Z,6.30
2023-01-31T04:48:55.392Z,6.40
2023-01-31T04:51:23.146Z,6.20
2023-01-31T04:53:50.827Z,6.00
2023-01-31T04:56:18.586Z,6.20
2023-01-31T04:58:48.301Z,6.40
2023-01-31T05:01:16.129Z,6.30
2023-01-31T05:03:43.958Z,6.40
2023-01-31T05:06:11.659Z,6.20
2023-01-31T05:08:39.351Z,6.20
2023-01-31T05:11:08.624Z,6.40
2023-01-31T05:13:38.268Z,6.50
2023-01-31T05:16:09.503Z,6.20
2023-01-31T05:18:37.783Z,6.10
2023-01-31T05:21:06.508Z,5.90
2023-01-31T05:23:34.262Z,5.60
2023-01-31T05:26:02.022Z,5.80
2023-01-31T05:28:29.814Z,5.60
2023-01-31T05:31:04.216Z,5.70
2023-01-31T05:33:34.277Z,5.90
2023-01-31T05:36:02.432Z,6.00
2023-01-31T05:38:31.243Z,5.90
2023-01-31T05:40:59.031Z,6.10
2023-01-31T05:43:26.764Z,5.80
2023-01-31T05:45:54.497Z,6.10
2023-01-31T05:48:22.175Z,6.30
2023-01-31T05:50:51.718Z,6.20
2023-01-31T05:53:19.884Z,6.20
2023-01-31T05:55:49.855Z,6.10
2023-01-31T05:58:17.765Z,6.30
2023-01-31T06:00:45.817Z,6.20
2023-01-31T06:03:13.582Z,6.10
2023-01-31T06:05:41.362Z,6.20
2023-01-31T06:08:10.994Z,6.40
2023-01-31T06:10:38.683Z,6.50
2023-01-31T06:13:07.352Z,6.40
2023-01-31T06:15:35.067Z,6.30
2023-01-31T06:18:03.788Z,6.40
2023-01-31T06:20:31.843Z,6.40
2023-01-31T06:23:01.025Z,6.40
2023-01-31T06:25:30.574Z,6.60
2023-01-31T06:27:59.330Z,6.30
2023-01-31T06:30:27.240Z,6.30
2023-01-31T06:32:55.009Z,6.30
2023-01-31T06:35:22.913Z,6.40
2023-01-31T06:37:50.800Z,6.50
2023-01-31T06:40:18.974Z,6.40
2023-01-31T06:42:48.068Z,6.40
2023-01-31T06:45:16.124Z,6.40
2023-01-31T06:47:46.405Z,6.50
2023-01-31T06:50:14.773Z,6.30
2023-01-31T06:52:42.828Z,6.50
2023-01-31T06:55:11.581Z,6.40
2023-01-31T06:57:48.447Z,6.50
2023-01-31T07:00:18.389Z,6.30
2023-01-31T07:02:46.427Z,6.40
2023-01-31T07:05:14.534Z,6.50
2023-01-31T07:07:42.296Z,6.20
2023-01-31T07:10:11.563Z,6.30
2023-01-31T07:12:39.396Z,6.20
2023-01-31T07:15:10.612Z,6.30
2023-01-31T07:17:38.400Z,6.60
2023-01-31T07:20:07.394Z,6.60
2023-01-31T07:22:35.104Z,6.60
2023-01-31T07:25:02.932Z,6.60
2023-01-31T07:27:31.200Z,6.90
2023-01-31T07:29:58.967Z,6.90
2023-01-31T07:32:31.577Z,6.90
2023-01-31T07:34:59.386Z,6.90
2023-01-31T07:37:27.122Z,6.70
2023-01-31T07:39:54.838Z,6.80
2023-01-31T07:42:22.564Z,6.70
2023-01-31T07:44:50.311Z,6.80
2023-01-31T07:47:18.033Z,6.70
2023-01-31T07:49:48.382Z,6.70
2023-01-31T07:52:16.177Z,6.80
2023-01-31T07:54:43.885Z,6.90
2023-01-31T07:57:13.111Z,6.90
2023-01-31T07:59:40.816Z,6.60
2023-01-31T08:02:30.589Z,6.80
2023-01-31T08:04:59.759Z,6.90
2023-01-31T08:07:28.089Z,6.90
2023-01-31T08:09:55.841Z,6.80
2023-01-31T08:12:23.579Z,7.00
2023-01-31T08:14:51.290Z,7.00
2023-01-31T08:17:19.844Z,7.20
2023-01-31T08:19:47.577Z,7.10
2023-01-31T08:22:16.613Z,7.10
2023-01-31T08:24:44.471Z,7.10
2023-01-31T08:27:14.415Z,7.00
2023-01-31T08:29:42.127Z,7.00
2023-01-31T08:32:09.935Z,7.20
2023-01-31T08:34:37.665Z,7.20
2023-01-31T08:37:05.454Z,7.40
2023-01-31T08:39:34.540Z,7.50
2023-01-31T08:42:02.319Z,7.50
2023-01-31T08:44:30.485Z,7.40
2023-01-31T08:47:00.664Z,7.30
2023-01-31T08:49:29.134Z,7.40
2023-01-31T08:51:56.885Z,7.50
2023-01-31T08:54:24.585Z,7.40
2023-01-31T08:56:53.707Z,7.20
2023-01-31T08:59:21.379Z,7.30
2023-01-31T09:01:49.240Z,7.30
2023-01-31T09:04:17.097Z,7.40
2023-01-31T09:06:44.796Z,7.50
2023-01-31T09:09:12.523Z,7.40
2023-01-31T09:11:40.499Z,7.40
2023-01-31T09:14:09.588Z,7.60
2023-01-31T09:16:37.367Z,7.50
2023-01-31T09:19:05.131Z,7.30
2023-01-31T09:21:33.566Z,7.30
2023-01-31T09:24:03.715Z,7.60
2023-01-31T09:26:32.366Z,7.50
2023-01-31T09:29:01.474Z,7.60
2023-01-31T09:31:31.400Z,7.60
2023-01-31T09:33:59.312Z,7.50
2023-01-31T09:36:27.745Z,7.50
2023-01-31T09:38:56.771Z,7.70
2023-01-31T09:41:31.125Z,7.90
2023-01-31T09:44:02.495Z,7.70
2023-01-31T09:46:37.574Z,7.50
2023-01-31T09:49:07.981Z,7.50
2023-01-31T09:51:35.775Z,7.40
2023-01-31T09:54:16.519Z,7.40
2023-01-31T09:56:51.700Z,7.50
2023-01-31T09:59:24.085Z,7.50
2023-01-31T10:02:00.403Z,7.40
2023-01-31T10:04:53.052Z,7.50
2023-01-31T10:07:28.544Z,7.30
2023-01-31T10:10:02.225Z,7.60
2023-01-31T10:12:34.587Z,7.70
2023-01-31T10:15:06.705Z,7.80
2023-01-31T10:17:41.118Z,8.00
2023-01-31T10:20:17.908Z,8.10
2023-01-31T10:22:51.631Z,7.80
2023-01-31T10:25:35.480Z,7.80
2023-01-31T10:28:07.963Z,7.90
2023-01-31T10:30:43.656Z,8.00
2023-01-31T10:33:25.064Z,7.90
2023-01-31T10:35:55.959Z,7.90
2023-01-31T10:38:29.063Z,7.80
2023-01-31T10:41:03.337Z,7.50
2023-01-31T10:43:40.743Z,7.60
2023-01-31T10:46:12.843Z,7.30
2023-01-31T10:48:47.294Z,7.20
2023-01-31T10:51:40.617Z,7.00
2023-01-31T10:54:19.357Z,7.10
2023-01-31T10:56:48.793Z,6.90
2023-01-31T10:59:24.678Z,6.90
2023-01-31T11:01:53.031Z,6.80
2023-01-31T11:04:30.361Z,6.80
2023-01-31T11:07:00.549Z,6.90
2023-01-31T11:09:31.253Z,7.10
2023-01-31T11:12:01.566Z,7.10
2023-01-31T11:14:31.481Z,7.00
2023-01-31T11:17:02.679Z,6.90
2023-01-31T11:19:41.966Z,7.10
2023-01-31T11:22:26.028Z,7.00
2023-01-31T11:24:55.005Z,7.00
2023-01-31T11:27:27.826Z,6.90
2023-01-31T11:30:00.288Z,7.00
2023-01-31T11:32:31.926Z,6.80
2023-01-31T11:35:03.613Z,7.10
2023-01-31T11:37:34.353Z,7.00
2023-01-31T11:40:13.690Z,7.00
2023-01-31T11:42:52.645Z,7.00
2023-01-31T11:45:23.008Z,7.00
2023-01-31T11:47:52.804Z,7.10
2023-01-31T11:50:27.742Z,7.20
2023-01-31T11:52:57.491Z,7.50
2023-01-31T11:55:26.638Z,7.40
2023-01-31T11:57:59.747Z,7.20
2023-01-31T12:00:31.945Z,7.20
2023-01-31T12:03:03.086Z,7.40
2023-01-31T12:05:38.070Z,7.40
2023-01-31T12:08:06.611Z,7.40
2023-01-31T12:10:41.315Z,7.30
2023-01-31T12:13:19.240Z,7.50
2023-01-31T12:15:55.730Z,7.50
2023-01-31T12:18:45.314Z,7.70
2023-01-31T12:21:16.935Z,7.70
2023-01-31T12:23:57.630Z,7.40
2023-01-31T12:26:35.847Z,7.30
2023-01-31T12:29:25.388Z,7.30
2023-01-31T12:32:09.734Z,7.10
2023-01-31T12:35:00.868Z,7.00
2023-01-31T12:37:42.824Z,7.10
2023-01-31T12:40:34.395Z,7.20
2023-01-31T12:43:05.433Z,7.20
2023-01-31T12:45:48.232Z,7.20
2023-01-31T12:48:37.865Z,7.00
2023-01-31T12:51:16.818Z,7.10
2023-01-31T12:53:56.118Z,7.00
2023-01-31T12:56:37.568Z,6.90
2023-01-31T12:59:16.671Z,7.00
2023-01-31T13:01:50.840Z,6.90
2023-01-31T13:04:36.617Z,7.10
2023-01-31T13:07:08.825Z,7.20
2023-01-31T13:09:38.733Z,7.10
2023-01-31T13:12:13.189Z,7.10
2023-01-31T13:14:44.146Z,7.10
2023-01-31T13:17:15.472Z,7.40
2023-01-31T13:19:50.122Z,7.30
2023-01-31T13:22:21.638Z,7.40
2023-01-31T13:24:57.048Z,7.20
2023-01-31T13:27:31.504Z,7.30
2023-01-31T13:30:02.401Z,7.60
2023-01-31T13:32:38.836Z,7.60
2023-01-31T13:35:17.813Z,7.50
2023-01-31T13:37:48.790Z,7.40
2023-01-31T13:40:21.936Z,7.50
2023-01-31T13:42:51.058Z,7.70
2023-01-31T13:45:24.503Z,7.70
2023-01-31T13:47:56.567Z,7.70
2023-01-31T13:50:37.792Z,7.80
2023-01-31T13:53:07.592Z,7.90
2023-01-31T13:55:40.571Z,7.70
2023-01-31T13:58:16.095Z,7.60
2023-01-31T14:00:46.208Z,7.70
2023-01-31T14:03:15.723Z,7.70
2023-01-31T14:05:56.816Z,7.40
2023-01-31T14:08:40.066Z,7.60
2023-01-31T14:11:47.439Z,7.70
2023-01-31T14:14:38.961Z,7.60
2023-01-31T14:17:10.876Z,7.70
2023-01-31T14:20:04.340Z,7.60
2023-01-31T14:22:35.024Z,7.50
2023-01-31T14:25:05.124Z,7.40
2023-01-31T14:27:40.321Z,7.30
2023-01-31T14:30:37.958Z,7.50
2023-01-31T14:33:28.063Z,7.50
2023-01-31T14:36:19.868Z,7.40
2023-01-31T14:39:18.710Z,7.50
2023-01-31T14:42:16.863Z,7.50
2023-01-31T14:44:57.712Z,7.50
2023-01-31T14:47:41.698Z,7.50
2023-01-31T14:50:29.920Z,7.80
2023-01-31T14:53:11.081Z,7.70
2023-01-31T14:55:50.020Z,7.60
2023-01-31T14:58:21.611Z,7.60
2023-01-31T15:00:51.344Z,7.50
2023-01-31T15:03:25.231Z,7.60
2023-01-31T15:05:56.686Z,7.60
2023-01-31T15:08:43.946Z,7.60
2023-01-31T15:11:41.345Z,7.50
2023-01-31T15:14:35.119Z,7.60
2023-01-31T15:17:07.109Z,7.60
2023-01-31T15:19:45.226Z,7.60
2023-01-31T15:22:14.985Z,7.60
2023-01-31T15:24:46.701Z,7.80
2023-01-31T15:27:17.384Z,7.80
2023-01-31T15:29:55.539Z,8.00
2023-01-31T15:32:25.711Z,7.90
2023-01-31T15:35:00.059Z,8.00
2023-01-31T15:37:32.712Z,7.90
2023-01-31T15:40:04.929Z,7.80
2023-01-31T15:42:34.424Z,7.90
2023-01-31T15:45:23.983Z,8.00
2023-01-31T15:48:02.110Z,7.90
2023-01-31T15:50:33.918Z,7.90
2023-01-31T15:53:05.541Z,7.90
2023-01-31T15:55:36.307Z,7.90
2023-01-31T15:58:06.854Z,7.80
2023-01-31T16:00:37.247Z,8.00
2023-01-31T16:03:08.204Z,8.00
2023-01-31T16:05:39.801Z,8.00
2023-01-31T16:08:22.287Z,7.80
2023-01-31T16:10:50.872Z,7.80
2023-01-31T16:13:19.775Z,7.70
2023-01-31T16:15:48.204Z,7.70
2023-01-31T16:18:16.539Z,7.70
2023-01-31T16:20:47.683Z,7.90
2023-01-31T16:23:26.710Z,8.10
2023-01-31T16:25:58.872Z,7.90
2023-01-31T16:28:29.155Z,8.00
2023-01-31T16:31:05.952Z,7.80
2023-01-31T16:33:34.009Z,7.80
2023-01-31T16:36:15.083Z,7.90
2023-01-31T16:38:55.111Z,7.80
2023-01-31T16:41:42.843Z,7.70
2023-01-31T16:44:14.888Z,7.90
2023-01-31T16:46:45.918Z,7.70
2023-01-31T16:49:23.322Z,8.00
2023-01-31T16:51:55.656Z,7.90
2023-01-31T16:54:25.239Z,7.90
2023-01-31T16:57:22.248Z,8.00
2023-01-31T16:59:51.202Z,8.00
2023-01-31T17:02:30.596Z,8.10
2023-01-31T17:05:01.007Z,8.20
2023-01-31T17:07:33.252Z,8.20
2023-01-31T17:10:03.941Z,8.40
2023-01-31T17:12:34.047Z,8.50
2023-01-31T17:15:03.882Z,8.30
2023-01-31T17:17:34.168Z,8.30
2023-01-31T17:20:02.211Z,8.30
2023-01-31T17:22:31.392Z,8.20
2023-01-31T17:24:59.199Z,8.10
2023-01-31T17:27:27.044Z,8.20
2023-01-31T17:29:54.775Z,8.30
2023-01-31T17:32:22.530Z,8.40
2023-01-31T17:34:50.252Z,8.60
2023-01-31T17:37:30.123Z,8.60
2023-01-31T17:40:00.792Z,8.20
2023-01-31T17:42:28.628Z,7.80
2023-01-31T17:44:56.378Z,7.80
2023-01-31T17:47:26.548Z,7.90
2023-01-31T17:49:54.743Z,7.60
2023-01-31T17:52:22.456Z,7.50
2023-01-31T17:54:50.214Z,7.30
2023-01-31T17:57:19.289Z,7.30
2023-01-31T17:59:46.978Z,7.30
2023-01-31T18:02:14.812Z,7.50
2023-01-31T18:04:42.692Z,7.90
2023-01-31T18:07:10.572Z,8.00
2023-01-31T18:09:38.528Z,8.00
2023-01-31T18:12:06.557Z,8.20
2023-01-31T18:14:35.672Z,8.00
2023-01-31T18:17:03.436Z,8.10
2023-01-31T18:19:31.160Z,8.10
2023-01-31T18:21:59.586Z,8.00
2023-01-31T18:24:27.532Z,8.00
2023-01-31T18:26:57.005Z,8.10
2023-01-31T18:29:26.234Z,8.10
2023-01-31T18:31:57.725Z,8.10
2023-01-31T18:34:25.989Z,7.80
2023-01-31T18:36:53.794Z,7.70
2023-01-31T18:39:21.621Z,7.60
2023-01-31T18:41:49.326Z,7.70
2023-01-31T18:44:17.120Z,7.80
2023-01-31T18:46:44.843Z,7.80
2023-01-31T18:49:13.869Z,7.60
2023-01-31T18:51:42.717Z,7.60
2023-01-31T18:54:10.488Z,7.80
2023-01-31T18:56:38.187Z,7.50
2023-01-31T18:59:05.908Z,7.50
2023-01-31T19:01:33.619Z,7.60
2023-01-31T19:04:02.593Z,7.80
2023-01-31T19:06:36.188Z,7.80
2023-01-31T19:09:06.305Z,7.70
2023-01-31T19:11:34.421Z,7.70
2023-01-31T19:14:06.494Z,7.80
2023-01-31T19:16:40.228Z,7.90
2023-01-31T19:19:08.678Z,8.00
2023-01-31T19:21:38.627Z,7.90
2023-01-31T19:24:08.547Z,8.20
2023-01-31T19:26:36.740Z,8.00
2023-01-31T19:29:07.028Z,7.70
2023-01-31T19:31:36.481Z,7.50
2023-01-31T19:34:06.638Z,7.50
2023-01-31T19:36:38.351Z,7.60
2023-01-31T19:39:07.462Z,7.70
2023-01-31T19:41:35.289Z,7.80
2023-01-31T19:44:04.099Z,7.80
2023-01-31T19:46:34.090Z,7.90
2023-01-31T19:49:02.582Z,8.00
2023-01-31T19:51:30.611Z,7.90
2023-01-31T19:54:02.675Z,8.00
2023-01-31T19:56:31.569Z,8.20
2023-01-31T19:58:59.732Z,8.30
2023-01-31T20:01:27.531Z,8.10
2023-01-31T20:03:55.909Z,8.00
2023-01-31T20:06:27.788Z,7.90
2023-01-31T20:08:58.445Z,7.90
2023-01-31T20:11:29.404Z,7.80
2023-01-31T20:13:58.171Z,7.90
2023-01-31T20:16:26.190Z,7.90
2023-01-31T20:18:55.379Z,7.80
2023-01-31T20:21:23.849Z,7.70
2023-01-31T20:23:51.716Z,7.70
2023-01-31T20:26:22.279Z,7.70
2023-01-31T20:28:51.698Z,7.80
2023-01-31T20:31:20.022Z,7.70
2023-01-31T20:33:47.781Z,8.00
2023-01-31T20:36:16.281Z,7.70
2023-01-31T20:38:43.998Z,7.70
2023-01-31T20:41:11.728Z,7.60
2023-01-31T20:43:39.428Z,7.50
2023-01-31T20:46:10.079Z,7.80
2023-01-31T20:48:38.178Z,7.80
2023-01-31T20:51:07.025Z,7.80
2023-01-31T20:53:35.721Z,7.80
2023-01-31T20:56:05.413Z,7.90
2023-01-31T20:58:35.092Z,7.90
2023-01-31T21:01:05.745Z,8.00
2023-01-31T21:03:36.181Z,8.00
2023-01-31T21:06:05.275Z,7.70
2023-01-31T21:08:35.201Z,7.80
2023-01-31T21:11:06.250Z,7.70
2023-01-31T21:13:33.970Z,7.80
2023-01-31T21:16:03.448Z,7.70
2023-01-31T21:18:34.004Z,7.50
2023-01-31T21:21:07.256Z,7.60
2023-01-31T21:23:36.019Z,7.50
2023-01-31T21:26:04.001Z,7.50
2023-01-31T21:28:31.864Z,7.50
2023-01-31T21:31:01.023Z,7.60
2023-01-31T21:33:29.901Z,7.50
2023-01-31T21:36:00.654Z,7.40
2023-01-31T21:38:29.823Z,7.40
2023-01-31T21:41:15.552Z,7.70
2023-01-31T21:43:43.380Z,7.60
2023-01-31T21:46:11.552Z,7.60
2023-01-31T21:48:40.276Z,7.70
2023-01-31T21:51:11.481Z,7.60
2023-01-31T21:53:41.339Z,7.70
2023-01-31T21:56:10.800Z,7.50
2023-01-31T21:58:40.008Z,7.60
2023-01-31T22:01:10.062Z,7.80
2023-01-31T22:03:42.876Z,7.80
2023-01-31T22:06:12.723Z,7.40
2023-01-31T22:08:42.381Z,7.50
2023-01-31T22:11:12.057Z,7.60
2023-01-31T22:13:40.337Z,7.70
2023-01-31T22:16:10.859Z,7.70
2023-01-31T22:18:40.327Z,7.60
2023-01-31T22:21:10.303Z,7.60
2023-01-31T22:23:39.853Z,7.70
2023-01-31T22:26:10.622Z,8.00
2023-01-31T22:28:39.079Z,8.00
2023-01-31T22:31:08.355Z,7.90
2023-01-31T22:33:38.499Z,7.70
2023-01-31T22:36:08.311Z,7.40
2023-01-31T22:38:36.316Z,7.50
2023-01-31T22:41:06.398Z,7.40
2023-01-31T22:43:37.891Z,7.30
2023-01-31T22:46:07.767Z,7.40
2023-01-31T22:48:36.360Z,7.30
2023-01-31T22:51:07.282Z,7.60
2023-01-31T22:53:36.749Z,7.60
2023-01-31T22:56:06.143Z,7.40
2023-01-31T22:58:34.064Z,7.30
2023-01-31T23:01:05.666Z,7.30
2023-01-31T23:03:33.480Z,7.30
2023-01-31T23:06:03.108Z,7.30
2023-01-31T23:08:31.120Z,7.10
2023-01-31T23:11:04.396Z,7.10
2023-01-31T23:13:32.348Z,7.30
2023-01-31T23:16:00.118Z,7.10
2023-01-31T23:18:29.516Z,7.10
2023-01-31T23:21:06.314Z,7.10
2023-01-31T23:23:34.212Z,7.00
2023-01-31T23:26:02.211Z,7.10
2023-01-31T23:28:30.023Z,7.20
2023-01-31T23:30:57.962Z,7.20
2023-01-31T23:33:25.773Z,7.30
2023-01-31T23:35:55.035Z,7.30
2023-01-31T23:38:23.076Z,7.10
2023-01-31T23:40:52.693Z,7.20
2023-01-31T23:43:20.928Z,6.90
2023-01-31T23:45:48.809Z,7.00
2023-01-31T23:48:16.716Z,7.10
2023-01-31T23:50:44.597Z,7.00
2023-01-31T23:53:13.664Z,7.20
2023-01-31T23:55:41.475Z,7.10
2023-01-31T23:58:09.216Z,7.00
